createdAt,value
2018-04-15T00:02:12.944Z,12.70
2018-04-15T00:04:41.188Z,13.23
2018-04-15T00:07:09.487Z,13.50
2018-04-15T00:09:37.795Z,14.33
2018-04-15T00:12:06.088Z,12.43
2018-04-15T00:14:34.360Z,13.90
2018-04-15T00:17:02.659Z,13.27
2018-04-15T00:19:30.948Z,12.40
2018-04-15T00:21:59.218Z,13.50
2018-04-15T00:24:27.534Z,13.93
2018-04-15T00:26:55.788Z,14.53
2018-04-15T00:29:24.087Z,14.20
2018-04-15T00:31:52.403Z,15.23
2018-04-15T00:34:20.675Z,15.00
2018-04-15T00:36:48.991Z,14.13
2018-04-15T00:39:17.301Z,14.00
2018-04-15T00:41:46.351Z,14.40
2018-04-15T00:44:14.631Z,13.63
2018-04-15T00:46:42.939Z,13.77
2018-04-15T00:49:11.194Z,13.60
2018-04-15T00:51:39.500Z,14.03
2018-04-15T00:54:17.372Z,14.20
2018-04-15T00:56:45.616Z,13.20
2018-04-15T00:59:13.887Z,12.93
2018-04-15T01:01:42.207Z,13.10
2018-04-15T01:04:10.467Z,13.10
2018-04-15T01:06:38.913Z,13.20
2018-04-15T01:09:07.236Z,12.90
2018-04-15T01:11:35.551Z,14.20
2018-04-15T01:14:03.934Z,13.00
2018-04-15T01:16:32.242Z,12.37
2018-04-15T01:19:00.520Z,12.30
2018-04-15T01:21:28.812Z,12.70
2018-04-15T01:23:57.103Z,12.50
2018-04-15T01:26:25.700Z,12.37
2018-04-15T01:28:53.978Z,12.80
2018-04-15T01:31:22.270Z,12.63
2018-04-15T01:33:50.575Z,12.07
2018-04-15T01:36:18.859Z,12.30
2018-04-15T01:38:47.151Z,12.30
2018-04-15T01:41:15.427Z,12.30
2018-04-15T01:43:43.707Z,12.00
2018-04-15T01:46:12.016Z,11.50
2018-04-15T01:48:40.291Z,12.07
2018-04-15T01:51:08.587Z,13.60
2018-04-15T01:53:36.854Z,13.23
2018-04-15T01:56:05.161Z,13.77
2018-04-15T01:58:33.462Z,14.50
2018-04-15T02:01:01.747Z,14.90
2018-04-15T02:03:30.020Z,14.93
2018-04-15T02:05:58.298Z,14.90
2018-04-15T02:08:26.611Z,13.30
2018-04-15T02:10:54.888Z,15.23
2018-04-15T02:13:23.213Z,13.90
2018-04-15T02:15:51.494Z,14.60
2018-04-15T02:18:19.743Z,14.93
2018-04-15T02:20:48.038Z,14.27
2018-04-15T02:23:16.352Z,14.83
2018-04-15T02:25:44.695Z,15.30
2018-04-15T02:28:12.922Z,15.00
2018-04-15T02:30:41.222Z,14.73
2018-04-15T02:33:09.496Z,16.03
2018-04-15T02:35:37.779Z,15.23
2018-04-15T02:38:06.084Z,17.83
2018-04-15T02:40:34.360Z,14.50
2018-04-15T02:43:02.642Z,15.60
2018-04-15T02:45:30.964Z,16.30
2018-04-15T02:47:59.220Z,17.50
2018-04-15T02:50:27.496Z,17.40
2018-04-15T02:52:55.819Z,17.93
2018-04-15T02:55:24.079Z,16.50
2018-04-15T02:57:52.382Z,17.80
2018-04-15T03:00:20.659Z,18.70
2018-04-15T03:02:48.943Z,17.20
2018-04-15T03:05:17.247Z,17.03
2018-04-15T03:07:45.531Z,18.70
2018-04-15T03:10:13.825Z,18.10
2018-04-15T03:12:42.099Z,17.97
2018-04-15T03:15:10.415Z,18.80
2018-04-15T03:17:38.694Z,17.50
2018-04-15T03:20:06.972Z,18.83
2018-04-15T03:22:35.279Z,17.50
2018-04-15T03:25:03.555Z,18.60
2018-04-15T03:27:31.828Z,19.07
2018-04-15T03:30:00.145Z,20.10
2018-04-15T03:32:28.402Z,19.00
2018-04-15T03:34:56.758Z,20.67
2018-04-15T03:37:25.001Z,20.93
2018-04-15T03:39:53.290Z,20.37
2018-04-15T03:42:21.563Z,19.53
2018-04-15T03:44:49.875Z,21.73
2018-04-15T03:47:18.140Z,21.17
2018-04-15T03:49:46.435Z,19.70
2018-04-15T03:52:14.669Z,20.53
2018-04-15T03:54:42.960Z,20.30
2018-04-15T03:57:11.238Z,20.40
2018-04-15T03:59:39.505Z,20.27
2018-04-15T04:02:07.804Z,17.50
2018-04-15T04:04:36.056Z,18.10
2018-04-15T04:07:04.383Z,17.70
2018-04-15T04:09:32.659Z,13.73
2018-04-15T04:12:00.947Z,15.10
2018-04-15T04:14:29.248Z,12.77
2018-04-15T04:16:57.583Z,13.40
2018-04-15T04:19:35.812Z,11.07
2018-04-15T04:23:14.159Z,11.70
2018-04-15T04:25:43.343Z,12.50
2018-04-15T04:28:11.567Z,12.47
2018-04-15T04:30:39.868Z,12.97
2018-04-15T04:33:08.169Z,13.03
2018-04-15T04:35:36.444Z,13.00
2018-04-15T04:38:04.715Z,13.73
2018-04-15T04:40:33.084Z,14.20
2018-04-15T04:43:01.290Z,13.20
2018-04-15T04:45:29.591Z,14.10
2018-04-15T04:47:57.926Z,15.30
2018-04-15T04:50:26.211Z,14.77
2018-04-15T04:52:54.507Z,14.87
2018-04-15T04:55:22.803Z,14.60
2018-04-15T04:57:51.023Z,14.10
2018-04-15T05:00:19.384Z,16.10
2018-04-15T05:02:47.641Z,14.43
2018-04-15T05:05:15.916Z,14.70
2018-04-15T05:07:44.312Z,14.30
2018-04-15T05:10:12.564Z,14.70
2018-04-15T05:12:40.880Z,14.97
2018-04-15T05:15:09.143Z,15.07
2018-04-15T05:17:37.459Z,15.00
2018-04-15T05:20:05.751Z,14.87
2018-04-15T05:22:34.044Z,15.13
2018-04-15T05:25:02.344Z,15.40
2018-04-15T05:27:30.601Z,16.07
2018-04-15T05:29:58.944Z,16.27
2018-04-15T05:32:27.182Z,16.50
2018-04-15T05:34:55.447Z,17.07
2018-04-15T05:37:23.764Z,17.03
2018-04-15T05:39:52.060Z,16.47
2018-04-15T05:42:20.336Z,17.73
2018-04-15T05:44:48.648Z,18.93
2018-04-15T05:47:16.935Z,20.50
2018-04-15T05:49:45.188Z,21.20
2018-04-15T05:52:13.503Z,20.40
2018-04-15T05:54:41.784Z,20.17
2018-04-15T05:57:10.075Z,19.80
2018-04-15T05:59:38.355Z,21.40
2018-04-15T06:02:06.664Z,20.57
2018-04-15T06:04:34.934Z,20.67
2018-04-15T06:07:03.798Z,20.20
2018-04-15T06:09:32.067Z,20.70
2018-04-15T06:12:00.359Z,20.50
2018-04-15T06:14:28.608Z,19.93
2018-04-15T06:16:57.152Z,20.57
2018-04-15T06:19:25.423Z,20.10
2018-04-15T06:21:53.691Z,19.90
2018-04-15T06:24:22.048Z,21.03
2018-04-15T06:26:50.397Z,21.23
2018-04-15T06:29:18.656Z,21.93
2018-04-15T06:31:46.981Z,21.50
2018-04-15T06:34:15.325Z,19.80
2018-04-15T06:36:43.680Z,20.13
2018-04-15T06:39:11.931Z,20.40
2018-04-15T06:41:40.215Z,21.30
2018-04-15T06:44:08.503Z,20.80
2018-04-15T06:46:36.779Z,19.63
2018-04-15T06:49:05.105Z,20.07
2018-04-15T06:51:34.016Z,20.77
2018-04-15T06:54:02.878Z,19.27
2018-04-15T06:56:31.259Z,21.43
2018-04-15T06:58:59.572Z,20.57
2018-04-15T07:01:28.042Z,20.60
2018-04-15T07:03:56.395Z,18.90
2018-04-15T07:06:24.607Z,16.57
2018-04-15T07:08:53.118Z,17.37
2018-04-15T07:11:21.423Z,19.63
2018-04-15T07:13:49.774Z,18.33
2018-04-15T07:16:18.144Z,17.27
2018-04-15T07:18:46.404Z,18.03
2018-04-15T07:21:14.680Z,15.60
2018-04-15T07:23:42.967Z,14.80
2018-04-15T07:26:11.244Z,16.33
2018-04-15T07:28:39.524Z,15.53
2018-04-15T07:31:07.869Z,16.50
2018-04-15T07:33:36.209Z,17.70
2018-04-15T07:36:04.588Z,17.53
2018-04-15T07:38:32.932Z,16.60
2018-04-15T07:41:01.204Z,16.60
2018-04-15T07:43:29.555Z,18.30
2018-04-15T07:45:57.909Z,19.07
2018-04-15T07:48:26.196Z,17.77
2018-04-15T07:50:54.483Z,17.90
2018-04-15T07:53:22.827Z,16.80
2018-04-15T07:55:51.214Z,16.37
2018-04-15T07:58:19.610Z,17.57
2018-04-15T08:00:48.087Z,16.80
2018-04-15T08:03:16.300Z,15.10
2018-04-15T08:05:44.641Z,15.50
2018-04-15T08:08:12.884Z,16.40
2018-04-15T08:10:41.162Z,14.77
2018-04-15T08:13:09.430Z,15.83
2018-04-15T08:15:38.359Z,15.57
2018-04-15T08:18:06.763Z,15.90
2018-04-15T08:20:35.058Z,16.93
2018-04-15T08:23:03.816Z,16.60
2018-04-15T08:25:32.167Z,16.73
2018-04-15T08:28:00.415Z,16.77
2018-04-15T08:30:28.718Z,15.17
2018-04-15T08:32:56.990Z,16.37
2018-04-15T08:35:25.283Z,17.10
2018-04-15T08:37:53.654Z,15.50
2018-04-15T08:40:21.956Z,15.53
2018-04-15T08:42:50.854Z,15.00
2018-04-15T08:45:20.313Z,14.20
2018-04-15T08:47:48.687Z,13.90
2018-04-15T08:50:16.947Z,15.10
2018-04-15T08:52:45.300Z,14.83
2018-04-15T08:55:13.704Z,15.57
2018-04-15T08:57:41.944Z,16.07
2018-04-15T09:00:10.261Z,15.03
2018-04-15T09:02:38.534Z,14.97
2018-04-15T09:05:07.032Z,17.17
2018-04-15T09:07:35.299Z,15.70
2018-04-15T09:10:03.610Z,16.30
2018-04-15T09:12:32.096Z,16.30
2018-04-15T09:15:00.479Z,16.00
2018-04-15T09:17:28.835Z,17.03
2018-04-15T09:19:57.551Z,16.97
2018-04-15T09:22:26.052Z,17.47
2018-04-15T09:24:54.473Z,17.67
2018-04-15T09:27:23.784Z,16.43
2018-04-15T09:29:52.048Z,16.60
2018-04-15T09:32:20.370Z,17.60
2018-04-15T09:34:48.609Z,17.30
2018-04-15T09:37:16.926Z,16.90
2018-04-15T09:39:45.224Z,17.67
2018-04-15T09:42:13.516Z,18.83
2018-04-15T09:44:41.845Z,18.00
2018-04-15T09:47:10.155Z,17.00
2018-04-15T09:49:38.484Z,17.60
2018-04-15T09:52:06.724Z,18.40
2018-04-15T09:54:35.011Z,17.40
2018-04-15T09:57:03.330Z,18.20
2018-04-15T09:59:31.640Z,21.00
2018-04-15T10:01:59.940Z,18.40
2018-04-15T10:04:28.374Z,19.07
2018-04-15T10:06:56.684Z,19.87
2018-04-15T10:09:25.006Z,18.67
2018-04-15T10:11:53.249Z,18.27
2018-04-15T10:14:21.553Z,19.20
2018-04-15T10:16:49.893Z,19.60
2018-04-15T10:19:18.150Z,18.37
2018-04-15T10:21:46.489Z,21.53
2018-04-15T10:24:14.777Z,21.37
2018-04-15T10:26:44.293Z,19.40
2018-04-15T10:29:12.922Z,20.30
2018-04-15T10:31:41.951Z,20.67
2018-04-15T10:34:10.251Z,19.53
2018-04-15T10:36:38.519Z,18.10
2018-04-15T10:39:06.886Z,18.90
2018-04-15T10:41:35.128Z,19.40
2018-04-15T10:44:03.410Z,20.30
2018-04-15T10:46:31.676Z,18.43
2018-04-15T10:49:00.035Z,20.77
2018-04-15T10:51:28.399Z,19.93
2018-04-15T10:53:56.655Z,19.93
2018-04-15T10:56:24.931Z,18.63
2018-04-15T10:58:53.328Z,20.20
2018-04-15T11:01:21.629Z,19.67
2018-04-15T11:03:49.924Z,20.90
2018-04-15T11:06:18.235Z,21.60
2018-04-15T11:08:46.505Z,21.53
2018-04-15T11:11:14.940Z,20.70
2018-04-15T11:13:43.169Z,20.23
2018-04-15T11:16:11.479Z,22.47
2018-04-15T11:18:39.767Z,20.63
2018-04-15T11:21:08.028Z,20.50
2018-04-15T11:23:36.332Z,21.57
2018-04-15T11:26:04.650Z,23.07
2018-04-15T11:28:33.009Z,22.00
2018-04-15T11:31:01.392Z,23.73
2018-04-15T11:33:29.745Z,22.10
2018-04-15T11:35:58.140Z,22.37
2018-04-15T11:38:26.508Z,21.97
2018-04-15T11:40:55.559Z,22.60
2018-04-15T11:43:23.865Z,22.87
2018-04-15T11:45:52.199Z,21.80
2018-04-15T11:48:20.447Z,20.73
2018-04-15T11:50:48.712Z,23.10
2018-04-15T11:53:17.011Z,23.00
2018-04-15T11:55:45.283Z,21.70
2018-04-15T11:58:13.545Z,22.93
2018-04-15T12:00:41.804Z,21.30
2018-04-15T12:03:10.067Z,22.30
2018-04-15T12:05:38.371Z,21.00
2018-04-15T12:08:06.723Z,20.63
2018-04-15T12:10:35.086Z,19.77
2018-04-15T12:13:03.339Z,21.13
2018-04-15T12:15:31.614Z,20.73
2018-04-15T12:17:59.908Z,20.73
2018-04-15T12:20:28.183Z,21.57
2018-04-15T12:22:56.479Z,20.70
2018-04-15T12:25:24.773Z,19.83
2018-04-15T12:27:53.075Z,19.87
2018-04-15T12:30:21.363Z,17.80
2018-04-15T12:32:49.660Z,18.53
2018-04-15T12:35:17.962Z,19.03
2018-04-15T12:37:46.252Z,18.73
2018-04-15T12:40:14.486Z,18.83
2018-04-15T12:42:42.799Z,18.70
2018-04-15T12:45:11.061Z,19.83
2018-04-15T12:47:39.553Z,20.90
2018-04-15T12:50:07.855Z,18.87
2018-04-15T12:52:36.152Z,19.63
2018-04-15T12:55:04.448Z,19.47
2018-04-15T12:57:32.744Z,19.77
2018-04-15T13:00:01.024Z,19.20
2018-04-15T13:02:29.319Z,21.70
2018-04-15T13:04:57.593Z,17.60
2018-04-15T13:07:25.919Z,21.40
2018-04-15T13:09:54.167Z,20.00
2018-04-15T13:12:22.448Z,20.70
2018-04-15T13:14:50.759Z,20.80
2018-04-15T13:17:19.027Z,20.23
2018-04-15T13:19:47.337Z,20.73
2018-04-15T13:22:15.685Z,19.00
2018-04-15T13:24:43.912Z,18.70
2018-04-15T13:27:12.214Z,19.37
2018-04-15T13:29:40.522Z,19.60
2018-04-15T13:32:08.787Z,19.00
2018-04-15T13:34:37.322Z,19.97
2018-04-15T13:37:05.555Z,20.10
2018-04-15T13:39:33.847Z,21.40
2018-04-15T13:42:02.156Z,19.37
2018-04-15T13:44:30.457Z,19.10
2018-04-15T13:46:58.706Z,20.43
2018-04-15T13:49:27.010Z,19.77
2018-04-15T13:51:55.299Z,19.40
2018-04-15T13:54:23.578Z,18.87
2018-04-15T13:56:51.874Z,16.57
2018-04-15T13:59:20.167Z,19.37
2018-04-15T14:01:48.438Z,17.40
2018-04-15T14:04:16.740Z,15.73
2018-04-15T14:06:45.013Z,15.70
2018-04-15T14:09:13.314Z,15.27
2018-04-15T14:11:41.639Z,14.63
2018-04-15T14:14:09.910Z,14.77
2018-04-15T14:16:38.179Z,16.23
2018-04-15T14:19:06.475Z,14.17
2018-04-15T14:21:34.784Z,12.83
2018-04-15T14:24:03.033Z,13.30
2018-04-15T14:26:31.319Z,13.37
2018-04-15T14:28:59.688Z,14.53
2018-04-15T14:31:28.027Z,13.73
2018-04-15T14:33:56.291Z,14.77
2018-04-15T14:36:24.575Z,12.03
2018-04-15T14:38:52.867Z,14.37
2018-04-15T14:41:21.195Z,12.67
2018-04-15T14:43:49.447Z,12.90
2018-04-15T14:46:17.781Z,13.80
2018-04-15T14:48:46.107Z,12.70
2018-04-15T14:51:14.429Z,13.20
2018-04-15T14:53:42.707Z,13.80
2018-04-15T14:56:11.653Z,15.07
2018-04-15T14:58:40.077Z,15.80
2018-04-15T15:01:09.761Z,15.40
2018-04-15T15:03:38.697Z,13.43
2018-04-15T15:06:06.932Z,12.20
2018-04-15T15:08:35.467Z,13.17
2018-04-15T15:11:03.708Z,12.60
2018-04-15T15:13:31.992Z,12.20
2018-04-15T15:16:00.320Z,11.27
2018-04-15T15:18:28.590Z,13.13
2018-04-15T15:20:56.860Z,12.40
2018-04-15T15:23:25.171Z,11.50
2018-04-15T15:25:53.496Z,12.53
2018-04-15T15:28:21.863Z,12.90
2018-04-15T15:30:50.444Z,13.40
2018-04-15T15:33:18.715Z,13.37
2018-04-15T15:35:47.012Z,12.40
2018-04-15T15:38:15.291Z,10.90
2018-04-15T15:40:43.588Z,11.70
2018-04-15T15:43:11.876Z,12.00
2018-04-15T15:45:40.144Z,12.50
2018-04-15T15:48:08.458Z,11.73
2018-04-15T15:50:36.726Z,12.00
2018-04-15T15:53:05.160Z,12.67
2018-04-15T15:55:33.437Z,12.00
2018-04-15T15:58:01.788Z,11.03
2018-04-15T16:00:30.185Z,12.47
2018-04-15T16:02:58.544Z,12.33
2018-04-15T16:05:26.808Z,12.53
2018-04-15T16:07:55.095Z,13.63
2018-04-15T16:10:24.556Z,13.00
2018-04-15T16:12:52.990Z,12.80
2018-04-15T16:15:21.302Z,14.03
2018-04-15T16:17:49.554Z,12.30
2018-04-15T16:20:17.858Z,13.23
2018-04-15T16:22:46.187Z,12.20
2018-04-15T16:25:14.530Z,12.93
2018-04-15T16:27:42.820Z,12.13
2018-04-15T16:30:11.094Z,12.07
2018-04-15T16:32:40.447Z,12.00
2018-04-15T16:35:08.704Z,11.93
2018-04-15T16:37:36.992Z,10.13
2018-04-15T16:40:05.611Z,9.40
2018-04-15T16:42:33.920Z,11.40
2018-04-15T16:45:02.176Z,10.67
2018-04-15T16:47:30.490Z,12.50
2018-04-15T16:49:59.820Z,12.60
2018-04-15T16:52:28.099Z,11.57
2018-04-15T16:54:56.367Z,12.63
2018-04-15T16:57:24.624Z,11.57
2018-04-15T16:59:52.906Z,11.10
2018-04-15T17:02:21.195Z,12.17
2018-04-15T17:04:49.506Z,11.93
2018-04-15T17:07:17.816Z,10.50
2018-04-15T17:09:46.112Z,10.67
2018-04-15T17:12:14.373Z,11.40
2018-04-15T17:14:42.672Z,11.20
2018-04-15T17:17:10.975Z,11.70
2018-04-15T17:19:39.246Z,11.50
2018-04-15T17:22:07.491Z,10.33
2018-04-15T17:24:35.864Z,12.10
2018-04-15T17:27:04.196Z,10.90
2018-04-15T17:29:32.503Z,10.70
2018-04-15T17:32:01.124Z,10.90
2018-04-15T17:34:29.491Z,10.60
2018-04-15T17:36:57.784Z,11.13
2018-04-15T17:39:26.082Z,10.67
2018-04-15T17:41:54.353Z,11.50
2018-04-15T17:44:22.645Z,11.93
2018-04-15T17:46:51.101Z,12.50
2018-04-15T17:49:19.411Z,10.60
2018-04-15T17:51:47.690Z,11.10
2018-04-15T17:54:15.998Z,11.33
2018-04-15T17:56:44.309Z,11.20
2018-04-15T17:59:12.595Z,11.30
2018-04-15T18:01:40.880Z,11.80
2018-04-15T18:04:09.156Z,11.80
2018-04-15T18:06:37.463Z,11.20
2018-04-15T18:09:06.198Z,9.80
2018-04-15T18:11:34.462Z,11.20
2018-04-15T18:14:02.715Z,11.70
2018-04-15T18:16:31.011Z,12.93
2018-04-15T18:18:59.331Z,12.77
2018-04-15T18:21:27.615Z,13.37
2018-04-15T18:23:55.900Z,14.10
2018-04-15T18:26:24.210Z,15.27
2018-04-15T18:28:52.446Z,16.77
2018-04-15T18:31:20.739Z,14.50
2018-04-15T18:33:49.080Z,13.63
2018-04-15T18:36:17.326Z,12.30
2018-04-15T18:38:45.638Z,12.10
2018-04-15T18:41:13.917Z,12.83
2018-04-15T18:43:42.276Z,11.57
2018-04-15T18:46:11.160Z,12.40
2018-04-15T18:48:39.583Z,12.10
2018-04-15T18:51:08.394Z,13.30
2018-04-15T18:53:37.655Z,13.00
2018-04-15T18:56:06.590Z,12.10
2018-04-15T18:58:36.382Z,14.40
2018-04-15T19:01:06.280Z,14.23
2018-04-15T19:03:36.464Z,14.30
2018-04-15T19:06:06.407Z,14.17
2018-04-15T19:08:35.971Z,13.07
2018-04-15T19:11:04.805Z,13.23
2018-04-15T19:13:35.131Z,14.83
2018-04-15T19:16:05.337Z,15.27
2018-04-15T19:18:36.042Z,14.10
2018-04-15T19:21:06.276Z,14.70
2018-04-15T19:23:36.743Z,14.57
2018-04-15T19:26:07.003Z,14.90
2018-04-15T19:28:37.583Z,15.50
2018-04-15T19:31:08.032Z,15.07
2018-04-15T19:33:38.736Z,14.50
2018-04-15T19:36:09.259Z,15.57
2018-04-15T19:38:39.857Z,15.27
2018-04-15T19:41:10.304Z,14.90
2018-04-15T19:43:41.701Z,15.47
2018-04-15T19:46:12.194Z,14.10
2018-04-15T19:48:42.666Z,15.40
2018-04-15T19:51:13.648Z,13.83
2018-04-15T19:53:44.120Z,13.00
2018-04-15T19:56:14.401Z,13.67
2018-04-15T19:58:44.804Z,15.07
2018-04-15T20:01:15.287Z,14.30
2018-04-15T20:03:45.896Z,13.50
2018-04-15T20:06:16.332Z,13.40
2018-04-15T20:08:46.558Z,13.80
2018-04-15T20:11:16.235Z,14.67
2018-04-15T20:13:44.912Z,14.00
2018-04-15T20:16:13.274Z,13.10
2018-04-15T20:18:41.842Z,13.80
2018-04-15T20:21:10.326Z,14.53
2018-04-15T20:23:38.793Z,14.30
2018-04-15T20:26:07.118Z,13.87
2018-04-15T20:28:35.364Z,14.80
2018-04-15T20:31:03.787Z,14.87
2018-04-15T20:33:32.048Z,14.03
2018-04-15T20:36:00.353Z,14.10
2018-04-15T20:38:28.989Z,14.00
2018-04-15T20:40:57.340Z,14.17
2018-04-15T20:43:25.646Z,14.30
2018-04-15T20:45:54.011Z,13.97
2018-04-15T20:48:22.323Z,14.50
2018-04-15T20:50:50.548Z,13.17
2018-04-15T20:53:18.872Z,13.23
2018-04-15T20:55:47.144Z,12.30
2018-04-15T20:58:15.452Z,14.07
2018-04-15T21:00:43.824Z,14.20
2018-04-15T21:03:12.108Z,14.13
2018-04-15T21:05:40.391Z,12.10
2018-04-15T21:08:09.704Z,12.13
2018-04-15T21:10:38.544Z,12.70
2018-04-15T21:13:07.072Z,11.50
2018-04-15T21:15:36.218Z,12.27
2018-04-15T21:18:04.553Z,12.20
2018-04-15T21:20:32.780Z,13.87
2018-04-15T21:23:01.099Z,12.87
2018-04-15T21:25:29.372Z,12.83
2018-04-15T21:27:57.589Z,12.40
2018-04-15T21:30:25.823Z,12.30
2018-04-15T21:32:54.111Z,14.20
2018-04-15T21:35:22.795Z,12.83
2018-04-15T21:37:51.095Z,12.00
2018-04-15T21:40:19.438Z,12.17
2018-04-15T21:42:47.728Z,14.00
2018-04-15T21:45:15.976Z,12.20
2018-04-15T21:47:44.300Z,13.37
2018-04-15T21:50:12.583Z,14.00
2018-04-15T21:52:40.886Z,13.03
2018-04-15T21:55:09.150Z,12.67
2018-04-15T21:57:37.436Z,12.57
2018-04-15T22:00:05.863Z,13.80
2018-04-15T22:02:34.100Z,14.50
2018-04-15T22:05:02.411Z,13.20
2018-04-15T22:07:30.700Z,13.47
2018-04-15T22:09:58.968Z,13.20
2018-04-15T22:12:27.300Z,12.70
2018-04-15T22:14:55.627Z,11.80
2018-04-15T22:17:23.940Z,13.83
2018-04-15T22:22:43.442Z,12.57
2018-04-15T22:25:11.741Z,13.67
2018-04-15T22:27:39.961Z,12.57
2018-04-15T22:30:08.203Z,12.57
2018-04-15T22:32:36.507Z,12.40
2018-04-15T22:35:04.771Z,12.43
2018-04-15T22:37:33.096Z,12.17
2018-04-15T22:40:01.368Z,12.23
2018-04-15T22:42:29.652Z,12.83
2018-04-15T22:44:57.949Z,13.13
2018-04-15T22:47:26.215Z,12.20
2018-04-15T22:49:58.676Z,11.90
2018-04-15T22:52:26.895Z,12.30
2018-04-15T22:54:55.199Z,12.73
2018-04-15T22:57:23.503Z,12.60
2018-04-15T22:59:51.779Z,11.53
2018-04-15T23:02:20.051Z,12.50
2018-04-15T23:04:48.443Z,11.23
2018-04-15T23:07:16.771Z,11.87
2018-04-15T23:09:45.072Z,11.67
2018-04-15T23:12:13.348Z,11.47
2018-04-15T23:14:41.551Z,11.50
2018-04-15T23:17:09.783Z,10.80
2018-04-15T23:19:38.100Z,11.47
2018-04-15T23:22:06.368Z,11.40
2018-04-15T23:24:34.685Z,10.97
2018-04-15T23:27:02.975Z,10.50
2018-04-15T23:29:31.226Z,11.33
2018-04-15T23:31:59.534Z,11.50
2018-04-15T23:34:27.808Z,12.00
2018-04-15T23:36:56.123Z,10.63
2018-04-15T23:39:24.391Z,10.87
2018-04-15T23:41:52.668Z,11.10
2018-04-15T23:44:20.982Z,11.57
2018-04-15T23:46:49.247Z,11.23
2018-04-15T23:49:17.548Z,11.43
2018-04-15T23:51:45.827Z,11.20
2018-04-15T23:54:14.106Z,10.63
2018-04-15T23:56:47.669Z,10.80
2018-04-15T23:59:15.951Z,10.87
